sensor_id;sensor_type;location;lat;lon;timestamp;pressure;altitude;pressure_sealevel;temperature;humidity
15694;BME280;7947;48.834;9.132;2023-03-05T00:02:42;98512.41;;;4.41;74.45
15694;BME280;7947;48.834;9.132;2023-03-05T00:05:45;98517.59;;;4.47;74.98
15694;BME280;7947;48.834;9.132;2023-03-05T00:08:48;98513.69;;;4.50;75.71
15694;BME280;7947;48.834;9.132;2023-03-05T00:11:53;98513.09;;;4.48;75.19
15694;BME280;7947;48.834;9.132;2023-03-05T00:14:56;98515.75;;;4.48;75.81
15694;BME280;7947;48.834;9.132;2023-03-05T00:17:59;98510.44;;;4.48;75.30
15694;BME280;7947;48.834;9.132;2023-03-05T00:21:02;98508.38;;;4.50;75.94
15694;BME280;7947;48.834;9.132;2023-03-05T00:24:07;98505.06;;;4.54;74.83
15694;BME280;7947;48.834;9.132;2023-03-05T00:27:13;98500.75;;;4.53;75.17
15694;BME280;7947;48.834;9.132;2023-03-05T00:30:16;98499.34;;;4.51;75.52
15694;BME280;7947;48.834;9.132;2023-03-05T00:33:19;98500.41;;;4.50;76.23
15694;BME280;7947;48.834;9.132;2023-03-05T00:36:22;98505.16;;;4.59;75.66
15694;BME280;7947;48.834;9.132;2023-03-05T00:39:25;98504.03;;;4.67;75.96
15694;BME280;7947;48.834;9.132;2023-03-05T00:42:30;98503.44;;;4.65;75.69
15694;BME280;7947;48.834;9.132;2023-03-05T00:45:39;98501.25;;;4.62;75.98
15694;BME280;7947;48.834;9.132;2023-03-05T00:48:42;98489.72;;;4.68;75.67
15694;BME280;7947;48.834;9.132;2023-03-05T00:51:45;98485.78;;;4.71;75.91
15694;BME280;7947;48.834;9.132;2023-03-05T00:54:48;98486.25;;;4.68;75.34
15694;BME280;7947;48.834;9.132;2023-03-05T00:57:52;98480.25;;;4.72;75.28
15694;BME280;7947;48.834;9.132;2023-03-05T01:00:56;98480.13;;;4.67;75.18
15694;BME280;7947;48.834;9.132;2023-03-05T01:03:59;98478.63;;;4.71;75.56
15694;BME280;7947;48.834;9.132;2023-03-05T01:07:03;98478.28;;;4.68;76.29
15694;BME280;7947;48.834;9.132;2023-03-05T01:10:07;98475.63;;;4.68;76.63
15694;BME280;7947;48.834;9.132;2023-03-05T01:13:11;98478.16;;;4.63;76.67
15694;BME280;7947;48.834;9.132;2023-03-05T01:16:14;98471.91;;;4.69;75.69
15694;BME280;7947;48.834;9.132;2023-03-05T01:19:17;98468.59;;;4.73;76.89
15694;BME280;7947;48.834;9.132;2023-03-05T01:22:20;98470.09;;;4.81;76.50
15694;BME280;7947;48.834;9.132;2023-03-05T01:25:23;98462.25;;;4.74;77.04
15694;BME280;7947;48.834;9.132;2023-03-05T01:28:28;98460.84;;;4.72;76.14
15694;BME280;7947;48.834;9.132;2023-03-05T01:31:30;98451.38;;;4.76;76.18
15694;BME280;7947;48.834;9.132;2023-03-05T01:34:35;98449.19;;;4.73;76.87
15694;BME280;7947;48.834;9.132;2023-03-05T01:37:38;98443.75;;;4.68;77.21
15694;BME280;7947;48.834;9.132;2023-03-05T01:40:41;98445.50;;;4.74;75.62
15694;BME280;7947;48.834;9.132;2023-03-05T01:43:47;98437.75;;;4.72;76.34
15694;BME280;7947;48.834;9.132;2023-03-05T01:46:50;98446.66;;;4.66;76.86
15694;BME280;7947;48.834;9.132;2023-03-05T01:49:53;98435.44;;;4.64;76.73
15694;BME280;7947;48.834;9.132;2023-03-05T01:53:01;98438.22;;;4.69;76.21
15694;BME280;7947;48.834;9.132;2023-03-05T01:56:05;98429.22;;;4.70;76.51
15694;BME280;7947;48.834;9.132;2023-03-05T01:59:09;98425.16;;;4.79;76.67
15694;BME280;7947;48.834;9.132;2023-03-05T02:02:13;98421.34;;;4.75;76.38
15694;BME280;7947;48.834;9.132;2023-03-05T02:05:19;98421.13;;;4.77;76.54
15694;BME280;7947;48.834;9.132;2023-03-05T02:08:27;98417.88;;;4.75;76.91
15694;BME280;7947;48.834;9.132;2023-03-05T02:11:31;98408.88;;;4.76;76.42
15694;BME280;7947;48.834;9.132;2023-03-05T02:14:37;98409.56;;;4.83;76.63
15694;BME280;7947;48.834;9.132;2023-03-05T02:17:40;98408.31;;;4.85;75.38
15694;BME280;7947;48.834;9.132;2023-03-05T02:20:46;98394.78;;;4.87;76.33
15694;BME280;7947;48.834;9.132;2023-03-05T02:23:51;98395.59;;;4.87;76.26
15694;BME280;7947;48.834;9.132;2023-03-05T02:26:54;98397.22;;;4.88;75.90
15694;BME280;7947;48.834;9.132;2023-03-05T02:29:57;98400.00;;;4.93;75.63
15694;BME280;7947;48.834;9.132;2023-03-05T02:33:00;98399.63;;;4.90;75.15
15694;BME280;7947;48.834;9.132;2023-03-05T02:36:04;98393.97;;;4.86;75.94
15694;BME280;7947;48.834;9.132;2023-03-05T02:39:08;98394.31;;;4.90;75.34
15694;BME280;7947;48.834;9.132;2023-03-05T02:42:11;98395.13;;;4.90;75.02
15694;BME280;7947;48.834;9.132;2023-03-05T02:45:15;98390.28;;;4.87;75.14
15694;BME280;7947;48.834;9.132;2023-03-05T02:48:18;98375.84;;;4.83;75.68
15694;BME280;7947;48.834;9.132;2023-03-05T02:51:20;98379.31;;;4.84;76.00
15694;BME280;7947;48.834;9.132;2023-03-05T02:54:25;98388.31;;;4.83;75.92
15694;BME280;7947;48.834;9.132;2023-03-05T02:57:28;98370.63;;;4.88;75.85
15694;BME280;7947;48.834;9.132;2023-03-05T03:00:30;98367.28;;;4.93;76.18
15694;BME280;7947;48.834;9.132;2023-03-05T03:03:33;98372.38;;;4.94;75.37
15694;BME280;7947;48.834;9.132;2023-03-05T03:06:36;98365.56;;;4.98;75.66
15694;BME280;7947;48.834;9.132;2023-03-05T03:09:41;98359.09;;;4.94;76.31
15694;BME280;7947;48.834;9.132;2023-03-05T03:12:44;98360.00;;;5.00;76.21
15694;BME280;7947;48.834;9.132;2023-03-05T03:15:47;98359.88;;;5.06;75.90
15694;BME280;7947;48.834;9.132;2023-03-05T03:18:50;98353.19;;;5.04;76.66
15694;BME280;7947;48.834;9.132;2023-03-05T03:21:53;98349.81;;;5.08;76.37
15694;BME280;7947;48.834;9.132;2023-03-05T03:24:57;98348.31;;;5.12;75.77
15694;BME280;7947;48.834;9.132;2023-03-05T03:28:00;98347.63;;;5.05;76.60
15694;BME280;7947;48.834;9.132;2023-03-05T03:31:03;98352.38;;;5.03;77.42
15694;BME280;7947;48.834;9.132;2023-03-05T03:34:06;98343.84;;;5.01;77.69
15694;BME280;7947;48.834;9.132;2023-03-05T03:37:09;98336.66;;;5.02;77.62
15694;BME280;7947;48.834;9.132;2023-03-05T03:40:14;98331.69;;;5.05;77.75
15694;BME280;7947;48.834;9.132;2023-03-05T03:43:17;98330.75;;;5.11;77.35
15694;BME280;7947;48.834;9.132;2023-03-05T03:46:20;98326.25;;;5.12;76.95
15694;BME280;7947;48.834;9.132;2023-03-05T03:49:24;98323.00;;;5.10;76.76
15694;BME280;7947;48.834;9.132;2023-03-05T03:52:27;98321.50;;;5.14;77.42
15694;BME280;7947;48.834;9.132;2023-03-05T03:55:32;98319.75;;;5.19;76.39
15694;BME280;7947;48.834;9.132;2023-03-05T03:58:35;98313.53;;;5.14;76.06
15694;BME280;7947;48.834;9.132;2023-03-05T04:01:38;98314.72;;;5.06;77.25
15694;BME280;7947;48.834;9.132;2023-03-05T04:04:41;98316.66;;;5.11;76.77
15694;BME280;7947;48.834;9.132;2023-03-05T04:07:44;98318.84;;;5.14;77.28
15694;BME280;7947;48.834;9.132;2023-03-05T04:10:48;98314.94;;;5.05;77.39
15694;BME280;7947;48.834;9.132;2023-03-05T04:13:51;98316.47;;;5.01;77.93
15694;BME280;7947;48.834;9.132;2023-03-05T04:16:54;98305.59;;;5.02;77.13
15694;BME280;7947;48.834;9.132;2023-03-05T04:19:57;98310.53;;;5.10;76.70
15694;BME280;7947;48.834;9.132;2023-03-05T04:23:00;98305.47;;;5.09;77.18
15694;BME280;7947;48.834;9.132;2023-03-05T04:26:04;98301.50;;;5.11;77.28
15694;BME280;7947;48.834;9.132;2023-03-05T04:29:07;98297.81;;;5.12;77.09
15694;BME280;7947;48.834;9.132;2023-03-05T04:32:10;98298.06;;;5.11;77.66
15694;BME280;7947;48.834;9.132;2023-03-05T04:35:13;98300.94;;;5.09;76.61
15694;BME280;7947;48.834;9.132;2023-03-05T04:38:16;98298.28;;;5.09;77.46
15694;BME280;7947;48.834;9.132;2023-03-05T04:41:20;98288.47;;;5.10;76.67
15694;BME280;7947;48.834;9.132;2023-03-05T04:44:23;98295.97;;;5.13;76.75
15694;BME280;7947;48.834;9.132;2023-03-05T04:47:26;98289.28;;;5.10;76.74
15694;BME280;7947;48.834;9.132;2023-03-05T04:50:29;98286.84;;;5.09;76.18
15694;BME280;7947;48.834;9.132;2023-03-05T04:53:32;98292.38;;;5.07;75.72
15694;BME280;7947;48.834;9.132;2023-03-05T04:56:37;98285.94;;;5.03;75.92
15694;BME280;7947;48.834;9.132;2023-03-05T04:59:40;98291.25;;;5.03;75.58
15694;BME280;7947;48.834;9.132;2023-03-05T05:02:44;98277.28;;;4.96;76.10
15694;BME280;7947;48.834;9.132;2023-03-05T05:05:53;98281.66;;;5.02;76.60
15694;BME280;7947;48.834;9.132;2023-03-05T05:08:56;98285.22;;;5.08;75.83
15694;BME280;7947;48.834;9.132;2023-03-05T05:12:00;98280.16;;;5.06;76.19
15694;BME280;7947;48.834;9.132;2023-03-05T05:15:04;98272.84;;;5.13;74.69
15694;BME280;7947;48.834;9.132;2023-03-05T05:18:08;98280.16;;;5.06;74.60
15694;BME280;7947;48.834;9.132;2023-03-05T05:21:12;98279.47;;;5.11;74.76
15694;BME280;7947;48.834;9.132;2023-03-05T05:24:15;98280.16;;;5.06;75.01
15694;BME280;7947;48.834;9.132;2023-03-05T05:27:20;98275.53;;;5.02;74.89
15694;BME280;7947;48.834;9.132;2023-03-05T05:30:23;98275.00;;;4.88;74.90
15694;BME280;7947;48.834;9.132;2023-03-05T05:33:27;98276.50;;;4.84;75.48
15694;BME280;7947;48.834;9.132;2023-03-05T05:36:30;98282.50;;;4.91;75.92
15694;BME280;7947;48.834;9.132;2023-03-05T05:39:34;98284.69;;;4.94;74.83
15694;BME280;7947;48.834;9.132;2023-03-05T05:42:38;98286.44;;;4.89;74.97
15694;BME280;7947;48.834;9.132;2023-03-05T05:45:41;98276.13;;;4.92;75.33
15694;BME280;7947;48.834;9.132;2023-03-05T05:48:44;98276.47;;;4.96;75.29
15694;BME280;7947;48.834;9.132;2023-03-05T05:51:47;98280.53;;;4.98;74.61
15694;BME280;7947;48.834;9.132;2023-03-05T05:54:50;98281.34;;;4.99;74.14
15694;BME280;7947;48.834;9.132;2023-03-05T05:57:54;98273.03;;;4.95;74.65
15694;BME280;7947;48.834;9.132;2023-03-05T06:00:57;98273.38;;;4.99;75.23
15694;BME280;7947;48.834;9.132;2023-03-05T06:04:01;98275.69;;;4.95;75.31
15694;BME280;7947;48.834;9.132;2023-03-05T06:07:04;98282.63;;;4.85;75.28
15694;BME280;7947;48.834;9.132;2023-03-05T06:10:08;98276.41;;;4.79;75.29
15694;BME280;7947;48.834;9.132;2023-03-05T06:13:13;98275.25;;;4.75;76.56
15694;BME280;7947;48.834;9.132;2023-03-05T06:16:17;98277.00;;;4.70;76.09
15694;BME280;7947;48.834;9.132;2023-03-05T06:19:21;98271.34;;;4.78;75.94
15694;BME280;7947;48.834;9.132;2023-03-05T06:22:23;98278.59;;;4.82;76.31
15694;BME280;7947;48.834;9.132;2023-03-05T06:25:26;98280.22;;;4.83;76.39
15694;BME280;7947;48.834;9.132;2023-03-05T06:28:31;98274.09;;;4.83;76.62
15694;BME280;7947;48.834;9.132;2023-03-05T06:31:34;98279.06;;;4.79;77.02
15694;BME280;7947;48.834;9.132;2023-03-05T06:34:37;98277.44;;;4.78;76.23
15694;BME280;7947;48.834;9.132;2023-03-05T06:37:40;98275.75;;;4.72;76.54
15694;BME280;7947;48.834;9.132;2023-03-05T06:40:43;98268.91;;;4.76;76.99
15694;BME280;7947;48.834;9.132;2023-03-05T06:43:48;98275.13;;;4.82;77.11
15694;BME280;7947;48.834;9.132;2023-03-05T06:46:51;98265.44;;;4.76;76.79
15694;BME280;7947;48.834;9.132;2023-03-05T06:49:54;98265.44;;;4.76;77.92
15694;BME280;7947;48.834;9.132;2023-03-05T06:52:57;98257.34;;;4.71;77.32
15694;BME280;7947;48.834;9.132;2023-03-05T06:56:00;98261.28;;;4.80;76.48
15694;BME280;7947;48.834;9.132;2023-03-05T06:59:05;98258.03;;;4.89;76.91
15694;BME280;7947;48.834;9.132;2023-03-05T07:02:09;98260.78;;;4.94;77.50
15694;BME280;7947;48.834;9.132;2023-03-05T07:05:14;98263.75;;;4.98;77.78
15694;BME280;7947;48.834;9.132;2023-03-05T07:08:17;98252.81;;;4.94;77.19
15694;BME280;7947;48.834;9.132;2023-03-05T07:11:22;98261.47;;;5.01;76.24
15694;BME280;7947;48.834;9.132;2023-03-05T07:14:26;98256.47;;;5.05;76.00
15694;BME280;7947;48.834;9.132;2023-03-05T07:17:29;98259.72;;;5.07;76.15
15694;BME280;7947;48.834;9.132;2023-03-05T07:20:33;98252.19;;;5.04;75.61
15694;BME280;7947;48.834;9.132;2023-03-05T07:23:36;98255.91;;;5.03;75.82
15694;BME280;7947;48.834;9.132;2023-03-05T07:26:39;98257.75;;;5.02;75.96
15694;BME280;7947;48.834;9.132;2023-03-05T07:29:43;98253.22;;;5.14;76.25
15694;BME280;7947;48.834;9.132;2023-03-05T07:32:46;98260.13;;;5.15;76.07
15694;BME280;7947;48.834;9.132;2023-03-05T07:35:49;98259.44;;;5.20;75.60
15694;BME280;7947;48.834;9.132;2023-03-05T07:38:51;98255.56;;;5.27;75.36
15694;BME280;7947;48.834;9.132;2023-03-05T07:41:54;98248.25;;;5.34;74.38
15694;BME280;7947;48.834;9.132;2023-03-05T07:44:59;98240.84;;;5.36;73.82
15694;BME280;7947;48.834;9.132;2023-03-05T07:48:01;98253.94;;;5.38;73.38
15694;BME280;7947;48.834;9.132;2023-03-05T07:51:06;98252.53;;;5.35;73.63
15694;BME280;7947;48.834;9.132;2023-03-05T07:54:09;98247.22;;;5.35;73.46
15694;BME280;7947;48.834;9.132;2023-03-05T07:57:14;98248.63;;;5.38;72.73
15694;BME280;7947;48.834;9.132;2023-03-05T08:00:19;98243.03;;;5.39;74.34
15694;BME280;7947;48.834;9.132;2023-03-05T08:03:21;98245.47;;;5.41;73.18
15694;BME280;7947;48.834;9.132;2023-03-05T08:06:25;98254.50;;;5.40;72.93
15694;BME280;7947;48.834;9.132;2023-03-05T08:09:28;98249.97;;;5.40;73.10
15694;BME280;7947;48.834;9.132;2023-03-05T08:12:31;98248.13;;;5.41;73.58
15694;BME280;7947;48.834;9.132;2023-03-05T08:15:35;98249.50;;;5.43;73.84
15694;BME280;7947;48.834;9.132;2023-03-05T08:18:39;98242.75;;;5.53;72.92
15694;BME280;7947;48.834;9.132;2023-03-05T08:21:42;98241.53;;;5.60;72.57
15694;BME280;7947;48.834;9.132;2023-03-05T08:24:45;98236.38;;;5.53;72.67
15694;BME280;7947;48.834;9.132;2023-03-05T08:27:48;98246.53;;;5.57;73.20
15694;BME280;7947;48.834;9.132;2023-03-05T08:30:52;98245.34;;;5.64;72.90
15694;BME280;7947;48.834;9.132;2023-03-05T08:33:56;98235.91;;;5.73;73.15
15694;BME280;7947;48.834;9.132;2023-03-05T08:36:59;98227.22;;;5.78;72.48
15694;BME280;7947;48.834;9.132;2023-03-05T08:40:03;98236.81;;;5.79;72.46
15694;BME280;7947;48.834;9.132;2023-03-05T08:43:06;98232.97;;;5.86;72.04
15694;BME280;7947;48.834;9.132;2023-03-05T08:46:11;98230.88;;;5.88;71.81
15694;BME280;7947;48.834;9.132;2023-03-05T08:49:14;98223.59;;;6.00;72.27
15694;BME280;7947;48.834;9.132;2023-03-05T08:52:17;98222.81;;;6.00;71.29
15694;BME280;7947;48.834;9.132;2023-03-05T08:55:20;98217.41;;;5.95;71.52
15694;BME280;7947;48.834;9.132;2023-03-05T08:58:23;98225.13;;;5.96;71.24
15694;BME280;7947;48.834;9.132;2023-03-05T09:01:27;98228.22;;;6.05;70.52
15694;BME280;7947;48.834;9.132;2023-03-05T09:04:31;98216.84;;;6.09;70.66
15694;BME280;7947;48.834;9.132;2023-03-05T09:07:34;98222.78;;;6.16;70.31
15694;BME280;7947;48.834;9.132;2023-03-05T09:10:40;98221.97;;;6.16;70.55
15694;BME280;7947;48.834;9.132;2023-03-05T09:13:43;98217.88;;;6.25;69.26
15694;BME280;7947;48.834;9.132;2023-03-05T09:16:47;98212.22;;;6.21;69.05
15694;BME280;7947;48.834;9.132;2023-03-05T09:19:50;98214.56;;;6.18;69.91
15694;BME280;7947;48.834;9.132;2023-03-05T09:22:53;98212.66;;;6.13;70.17
15694;BME280;7947;48.834;9.132;2023-03-05T09:25:56;98208.19;;;6.19;70.56
15694;BME280;7947;48.834;9.132;2023-03-05T09:28:59;98213.59;;;6.24;69.87
15694;BME280;7947;48.834;9.132;2023-03-05T09:32:05;98205.59;;;6.24;69.48
15694;BME280;7947;48.834;9.132;2023-03-05T09:35:09;98194.47;;;6.27;69.74
15694;BME280;7947;48.834;9.132;2023-03-05T09:38:12;98194.59;;;6.37;69.12
15694;BME280;7947;48.834;9.132;2023-03-05T09:41:20;98191.13;;;6.36;68.73
15694;BME280;7947;48.834;9.132;2023-03-05T09:44:33;98186.13;;;6.40;68.41
15694;BME280;7947;48.834;9.132;2023-03-05T09:47:55;98186.44;;;6.44;69.17
15694;BME280;7947;48.834;9.132;2023-03-05T09:51:10;98174.97;;;6.43;68.29
15694;BME280;7947;48.834;9.132;2023-03-05T09:54:18;98184.63;;;6.49;67.55
15694;BME280;7947;48.834;9.132;2023-03-05T09:57:26;98182.59;;;6.56;67.12
15694;BME280;7947;48.834;9.132;2023-03-05T10:00:34;98175.09;;;6.53;66.92
15694;BME280;7947;48.834;9.132;2023-03-05T10:03:48;98176.72;;;6.54;66.83
15694;BME280;7947;48.834;9.132;2023-03-05T10:06:56;98172.94;;;6.50;67.40
15694;BME280;7947;48.834;9.132;2023-03-05T10:10:02;98169.72;;;6.48;67.29
15694;BME280;7947;48.834;9.132;2023-03-05T10:13:12;98164.00;;;6.39;67.54
15694;BME280;7947;48.834;9.132;2023-03-05T10:16:52;98167.97;;;6.37;67.45
15694;BME280;7947;48.834;9.132;2023-03-05T10:20:13;98171.44;;;6.37;67.61
15694;BME280;7947;48.834;9.132;2023-03-05T10:23:25;98157.84;;;6.39;67.36
15694;BME280;7947;48.834;9.132;2023-03-05T10:26:37;98163.44;;;6.37;67.11
15694;BME280;7947;48.834;9.132;2023-03-05T10:29:52;98157.94;;;6.44;67.28
15694;BME280;7947;48.834;9.132;2023-03-05T10:33:10;98166.19;;;6.43;68.46
15694;BME280;7947;48.834;9.132;2023-03-05T10:36:28;98162.47;;;6.44;68.30
15694;BME280;7947;48.834;9.132;2023-03-05T10:39:45;98155.88;;;6.51;68.05
15694;BME280;7947;48.834;9.132;2023-03-05T10:42:57;98151.63;;;6.50;68.44
15694;BME280;7947;48.834;9.132;2023-03-05T10:46:03;98146.88;;;6.52;67.08
15694;BME280;7947;48.834;9.132;2023-03-05T10:49:14;98142.09;;;6.54;68.30
15694;BME280;7947;48.834;9.132;2023-03-05T10:52:22;98140.47;;;6.53;67.85
15694;BME280;7947;48.834;9.132;2023-03-05T10:55:27;98136.13;;;6.47;67.08
15694;BME280;7947;48.834;9.132;2023-03-05T10:58:30;98134.97;;;6.38;67.52
15694;BME280;7947;48.834;9.132;2023-03-05T11:01:34;98132.78;;;6.35;66.79
15694;BME280;7947;48.834;9.132;2023-03-05T11:04:39;98133.22;;;6.27;67.64
15694;BME280;7947;48.834;9.132;2023-03-05T11:07:43;98117.41;;;6.20;67.86
15694;BME280;7947;48.834;9.132;2023-03-05T11:10:46;98118.97;;;6.16;68.62
15694;BME280;7947;48.834;9.132;2023-03-05T11:13:53;98119.38;;;6.08;67.85
15694;BME280;7947;48.834;9.132;2023-03-05T11:16:56;98113.50;;;6.06;67.99
15694;BME280;7947;48.834;9.132;2023-03-05T11:23:36;98110.84;;;6.06;68.58
15694;BME280;7947;48.834;9.132;2023-03-05T11:26:47;98110.94;;;5.95;68.58
15694;BME280;7947;48.834;9.132;2023-03-05T11:29:51;98106.59;;;5.89;69.59
15694;BME280;7947;48.834;9.132;2023-03-05T11:33:07;98102.66;;;5.91;69.67
15694;BME280;7947;48.834;9.132;2023-03-05T11:36:20;98103.28;;;5.98;69.34
15694;BME280;7947;48.834;9.132;2023-03-05T11:39:26;98101.81;;;6.07;68.40
15694;BME280;7947;48.834;9.132;2023-03-05T11:42:31;98097.41;;;6.18;67.88
15694;BME280;7947;48.834;9.132;2023-03-05T11:45:34;98092.16;;;6.23;68.76
15694;BME280;7947;48.834;9.132;2023-03-05T11:48:38;98085.22;;;6.22;68.23
15694;BME280;7947;48.834;9.132;2023-03-05T11:51:45;98087.88;;;6.22;68.70
15694;BME280;7947;48.834;9.132;2023-03-05T11:55:03;98090.38;;;6.28;67.76
15694;BME280;7947;48.834;9.132;2023-03-05T11:58:21;98083.13;;;6.24;65.98
15694;BME280;7947;48.834;9.132;2023-03-05T12:01:27;98079.16;;;6.26;65.37
15694;BME280;7947;48.834;9.132;2023-03-05T12:04:31;98076.81;;;6.30;64.99
15694;BME280;7947;48.834;9.132;2023-03-05T12:07:39;98072.34;;;6.35;65.44
15694;BME280;7947;48.834;9.132;2023-03-05T12:10:45;98059.56;;;6.37;64.96
15694;BME280;7947;48.834;9.132;2023-03-05T12:13:50;98058.16;;;6.30;65.04
15694;BME280;7947;48.834;9.132;2023-03-05T12:17:02;98050.56;;;6.17;65.95
15694;BME280;7947;48.834;9.132;2023-03-05T12:20:13;98047.94;;;6.22;65.55
15694;BME280;7947;48.834;9.132;2023-03-05T12:23:19;98049.25;;;6.19;65.75
15694;BME280;7947;48.834;9.132;2023-03-05T12:26:55;98036.69;;;6.15;65.88
15694;BME280;7947;48.834;9.132;2023-03-05T12:30:00;98027.91;;;6.14;66.28
15694;BME280;7947;48.834;9.132;2023-03-05T12:33:04;98032.47;;;6.19;66.44
15694;BME280;7947;48.834;9.132;2023-03-05T12:36:33;98030.84;;;6.18;66.56
15694;BME280;7947;48.834;9.132;2023-03-05T12:39:55;98021.94;;;6.29;65.44
15694;BME280;7947;48.834;9.132;2023-03-05T12:43:01;98011.78;;;6.26;64.46
15694;BME280;7947;48.834;9.132;2023-03-05T12:46:21;98009.53;;;6.39;63.40
15694;BME280;7947;48.834;9.132;2023-03-05T12:49:32;98004.22;;;6.39;63.20
15694;BME280;7947;48.834;9.132;2023-03-05T12:52:40;97999.41;;;6.36;63.88
15694;BME280;7947;48.834;9.132;2023-03-05T12:55:55;97996.50;;;6.43;64.98
15694;BME280;7947;48.834;9.132;2023-03-05T12:59:00;97995.22;;;6.46;64.57
15694;BME280;7947;48.834;9.132;2023-03-05T13:02:17;97985.41;;;6.51;63.28
15694;BME280;7947;48.834;9.132;2023-03-05T13:05:25;97988.66;;;6.58;64.07
15694;BME280;7947;48.834;9.132;2023-03-05T13:08:31;97988.44;;;6.60;63.44
15694;BME280;7947;48.834;9.132;2023-03-05T13:11:37;97984.44;;;6.62;63.87
15694;BME280;7947;48.834;9.132;2023-03-05T13:14:43;97983.69;;;6.67;63.90
15694;BME280;7947;48.834;9.132;2023-03-05T13:17:53;97973.31;;;6.70;63.64
15694;BME280;7947;48.834;9.132;2023-03-05T13:21:02;97976.00;;;6.70;62.58
15694;BME280;7947;48.834;9.132;2023-03-05T13:24:14;97977.31;;;6.68;63.03
15694;BME280;7947;48.834;9.132;2023-03-05T13:27:24;97977.53;;;6.61;63.12
15694;BME280;7947;48.834;9.132;2023-03-05T13:30:31;97973.75;;;6.57;62.19
15694;BME280;7947;48.834;9.132;2023-03-05T13:33:36;97974.81;;;6.56;62.53
15694;BME280;7947;48.834;9.132;2023-03-05T13:36:39;97973.66;;;6.47;63.33
15694;BME280;7947;48.834;9.132;2023-03-05T13:39:48;97971.50;;;6.44;63.78
15694;BME280;7947;48.834;9.132;2023-03-05T13:42:52;97973.63;;;6.42;63.90
15694;BME280;7947;48.834;9.132;2023-03-05T13:45:58;97968.63;;;6.51;62.90
15694;BME280;7947;48.834;9.132;2023-03-05T13:49:20;97960.84;;;6.44;63.15
15694;BME280;7947;48.834;9.132;2023-03-05T13:52:24;97958.38;;;6.37;64.43
15694;BME280;7947;48.834;9.132;2023-03-05T13:55:28;97959.19;;;6.38;64.22
15694;BME280;7947;48.834;9.132;2023-03-05T13:58:47;97954.41;;;6.40;64.13
15694;BME280;7947;48.834;9.132;2023-03-05T14:01:51;97949.34;;;6.38;64.41
15694;BME280;7947;48.834;9.132;2023-03-05T14:04:55;97950.91;;;6.34;64.54
15694;BME280;7947;48.834;9.132;2023-03-05T14:07:58;97942.28;;;6.27;65.92
15694;BME280;7947;48.834;9.132;2023-03-05T14:11:11;97944.31;;;6.42;64.45
15694;BME280;7947;48.834;9.132;2023-03-05T14:14:16;97933.38;;;6.38;65.33
15694;BME280;7947;48.834;9.132;2023-03-05T14:17:31;97936.13;;;6.22;66.11
15694;BME280;7947;48.834;9.132;2023-03-05T14:20:37;97936.19;;;6.27;65.61
15694;BME280;7947;48.834;9.132;2023-03-05T14:23:42;97929.22;;;6.21;65.85
15694;BME280;7947;48.834;9.132;2023-03-05T14:26:48;97928.69;;;6.24;65.72
15694;BME280;7947;48.834;9.132;2023-03-05T14:29:52;97924.91;;;6.20;65.24
15694;BME280;7947;48.834;9.132;2023-03-05T14:32:57;97926.19;;;6.12;66.15
15694;BME280;7947;48.834;9.132;2023-03-05T14:36:08;97929.34;;;6.09;66.82
15694;BME280;7947;48.834;9.132;2023-03-05T14:39:28;97914.09;;;6.00;66.71
15694;BME280;7947;48.834;9.132;2023-03-05T14:42:33;97915.72;;;6.06;66.85
15694;BME280;7947;48.834;9.132;2023-03-05T14:45:41;97907.13;;;5.99;66.62
15694;BME280;7947;48.834;9.132;2023-03-05T14:48:46;97908.75;;;6.00;67.06
15694;BME280;7947;48.834;9.132;2023-03-05T14:51:49;97903.38;;;5.95;67.98
15694;BME280;7947;48.834;9.132;2023-03-05T14:54:53;97893.97;;;5.87;68.31
15694;BME280;7947;48.834;9.132;2023-03-05T14:58:01;97890.56;;;5.92;67.56
15694;BME280;7947;48.834;9.132;2023-03-05T15:01:04;97888.41;;;5.89;67.28
15694;BME280;7947;48.834;9.132;2023-03-05T15:04:09;97888.75;;;5.97;67.13
15694;BME280;7947;48.834;9.132;2023-03-05T15:07:17;97884.03;;;6.04;66.54
15694;BME280;7947;48.834;9.132;2023-03-05T15:10:22;97873.63;;;5.98;67.64
15694;BME280;7947;48.834;9.132;2023-03-05T15:13:25;97865.53;;;5.88;67.33
15694;BME280;7947;48.834;9.132;2023-03-05T15:16:29;97868.66;;;5.85;68.18
15694;BME280;7947;48.834;9.132;2023-03-05T15:19:34;97866.50;;;5.82;67.61
15694;BME280;7947;48.834;9.132;2023-03-05T15:22:37;97857.91;;;5.75;68.05
15694;BME280;7947;48.834;9.132;2023-03-05T15:25:40;97862.41;;;5.74;69.06
15694;BME280;7947;48.834;9.132;2023-03-05T15:28:43;97853.63;;;5.74;69.45
15694;BME280;7947;48.834;9.132;2023-03-05T15:31:46;97850.97;;;5.74;68.99
15694;BME280;7947;48.834;9.132;2023-03-05T15:34:50;97851.81;;;5.79;68.94
15694;BME280;7947;48.834;9.132;2023-03-05T15:37:53;97853.69;;;5.79;69.47
15694;BME280;7947;48.834;9.132;2023-03-05T15:40:57;97852.06;;;5.78;68.80
15694;BME280;7947;48.834;9.132;2023-03-05T15:44:02;97838.81;;;5.83;69.01
15694;BME280;7947;48.834;9.132;2023-03-05T15:47:05;97837.19;;;5.77;69.40
15694;BME280;7947;48.834;9.132;2023-03-05T15:50:10;97840.88;;;5.76;70.02
15694;BME280;7947;48.834;9.132;2023-03-05T15:53:14;97829.13;;;5.72;69.57
15694;BME280;7947;48.834;9.132;2023-03-05T15:56:19;97827.00;;;5.69;69.50
15694;BME280;7947;48.834;9.132;2023-03-05T15:59:22;97823.88;;;5.77;69.91
15694;BME280;7947;48.834;9.132;2023-03-05T16:02:25;97828.44;;;5.81;69.17
15694;BME280;7947;48.834;9.132;2023-03-05T16:05:30;97822.28;;;5.81;69.17
15694;BME280;7947;48.834;9.132;2023-03-05T16:08:35;97810.38;;;5.83;69.67
15694;BME280;7947;48.834;9.132;2023-03-05T16:11:39;97807.97;;;5.82;70.30
15694;BME280;7947;48.834;9.132;2023-03-05T16:14:49;97804.81;;;5.85;69.40
15694;BME280;7947;48.834;9.132;2023-03-05T16:17:54;97805.56;;;5.80;69.91
15694;BME280;7947;48.834;9.132;2023-03-05T16:20:59;97795.91;;;5.74;69.41
15694;BME280;7947;48.834;9.132;2023-03-05T16:24:02;97796.75;;;5.80;69.62
15694;BME280;7947;48.834;9.132;2023-03-05T16:27:05;97795.25;;;5.84;69.59
15694;BME280;7947;48.834;9.132;2023-03-05T16:30:09;97791.44;;;5.80;69.64
15694;BME280;7947;48.834;9.132;2023-03-05T16:33:13;97795.28;;;5.67;69.79
15694;BME280;7947;48.834;9.132;2023-03-05T16:36:23;97790.50;;;5.64;70.35
15694;BME280;7947;48.834;9.132;2023-03-05T16:39:26;97784.19;;;5.75;70.05
15694;BME280;7947;48.834;9.132;2023-03-05T16:42:29;97785.31;;;5.79;69.60
15694;BME280;7947;48.834;9.132;2023-03-05T16:45:32;97779.22;;;5.79;69.19
15694;BME280;7947;48.834;9.132;2023-03-05T16:48:35;97778.84;;;5.70;68.68
15694;BME280;7947;48.834;9.132;2023-03-05T16:51:39;97774.63;;;5.74;70.72
15694;BME280;7947;48.834;9.132;2023-03-05T16:54:42;97773.56;;;5.75;70.91